sensor_id;sensor_type;location;lat;lon;timestamp;pressure;altitude;pressure_sealevel;temperature;humidity
46476;BME280;53376;51.114;14.738;2022-12-04T00:00:18;98718.66;;;2.66;68.90
46476;BME280;53376;51.114;14.738;2022-12-04T00:02:59;98712.50;;;2.66;69.34
46476;BME280;53376;51.114;14.738;2022-12-04T00:05:39;98714.28;;;2.65;69.16
46476;BME280;53376;51.114;14.738;2022-12-04T00:08:05;98712.56;;;2.64;69.25
46476;BME280;53376;51.114;14.738;2022-12-04T00:10:41;98716.03;;;2.66;69.29
46476;BME280;53376;51.114;14.738;2022-12-04T00:13:22;98718.66;;;2.65;69.22
46476;BME280;53376;51.114;14.738;2022-12-04T00:26:07;98723.06;;;2.64;69.31
46476;BME280;53376;51.114;14.738;2022-12-04T00:28:48;98723.09;;;2.63;69.42
46476;BME280;53376;51.114;14.738;2022-12-04T00:31:29;98720.44;;;2.64;69.55
46476;BME280;53376;51.114;14.738;2022-12-04T00:33:57;98725.63;;;2.66;69.69
46476;BME280;53376;51.114;14.738;2022-12-04T00:36:43;98728.31;;;2.64;69.65
46476;BME280;53376;51.114;14.738;2022-12-04T00:39:10;98721.31;;;2.63;69.82
46476;BME280;53376;51.114;14.738;2022-12-04T00:41:51;98731.75;;;2.66;70.07
46476;BME280;53376;51.114;14.738;2022-12-04T00:54:32;98722.13;;;2.67;69.51
46476;BME280;53376;51.114;14.738;2022-12-04T00:57:08;98716.03;;;2.66;69.41
46476;BME280;53376;51.114;14.738;2022-12-04T00:59:48;98717.75;;;2.67;69.42
46476;BME280;53376;51.114;14.738;2022-12-04T01:02:14;98712.50;;;2.67;69.60
46476;BME280;53376;51.114;14.738;2022-12-04T01:04:54;98712.50;;;2.67;69.69
46476;BME280;53376;51.114;14.738;2022-12-04T01:07:28;98712.50;;;2.67;69.51
46476;BME280;53376;51.114;14.738;2022-12-04T01:20:45;98701.97;;;2.69;69.90
46476;BME280;53376;51.114;14.738;2022-12-04T01:23:28;98700.19;;;2.69;70.22
46476;BME280;53376;51.114;14.738;2022-12-04T01:25:56;98694.94;;;2.69;70.27
46476;BME280;53376;51.114;14.738;2022-12-04T01:28:37;98691.41;;;2.70;70.59
46476;BME280;53376;51.114;14.738;2022-12-04T01:31:07;98689.69;;;2.69;70.44
46476;BME280;53376;51.114;14.738;2022-12-04T01:47:45;98683.59;;;2.69;71.14
46476;BME280;53376;51.114;14.738;2022-12-04T01:50:25;98689.69;;;2.69;70.89
46476;BME280;53376;51.114;14.738;2022-12-04T01:53:05;98688.84;;;2.69;70.90
46476;BME280;53376;51.114;14.738;2022-12-04T01:55:32;98680.09;;;2.68;71.03
46476;BME280;53376;51.114;14.738;2022-12-04T01:58:14;98685.34;;;2.68;70.83
46476;BME280;53376;51.114;14.738;2022-12-04T02:00:53;98677.47;;;2.68;70.70
46476;BME280;53376;51.114;14.738;2022-12-04T02:14:22;98685.31;;;2.70;70.30
46476;BME280;53376;51.114;14.738;2022-12-04T02:17:16;98669.56;;;2.70;70.21
46476;BME280;53376;51.114;14.738;2022-12-04T02:20:08;98679.19;;;2.69;70.35
46476;BME280;53376;51.114;14.738;2022-12-04T02:23:17;98679.19;;;2.69;70.17
46476;BME280;53376;51.114;14.738;2022-12-04T02:26:04;98687.06;;;2.69;70.42
46476;BME280;53376;51.114;14.738;2022-12-04T02:39:50;98655.53;;;2.71;70.15
46476;BME280;53376;51.114;14.738;2022-12-04T02:42:39;98647.63;;;2.72;70.08
46476;BME280;53376;51.114;14.738;2022-12-04T02:45:19;98647.63;;;2.72;70.16
46476;BME280;53376;51.114;14.738;2022-12-04T02:48:05;98644.13;;;2.73;69.87
46476;BME280;53376;51.114;14.738;2022-12-04T02:50:40;98645.00;;;2.72;70.12
46476;BME280;53376;51.114;14.738;2022-12-04T02:53:26;98636.25;;;2.72;69.95
46476;BME280;53376;51.114;14.738;2022-12-04T03:07:06;98637.94;;;2.74;70.19
46476;BME280;53376;51.114;14.738;2022-12-04T03:09:53;98628.31;;;2.75;70.13
46476;BME280;53376;51.114;14.738;2022-12-04T03:12:40;98630.06;;;2.74;70.18
46476;BME280;53376;51.114;14.738;2022-12-04T03:15:20;98637.03;;;2.76;70.30
46476;BME280;53376;51.114;14.738;2022-12-04T03:18:06;98637.03;;;2.76;70.08
46476;BME280;53376;51.114;14.738;2022-12-04T03:20:47;98641.41;;;2.77;69.92
46476;BME280;53376;51.114;14.738;2022-12-04T03:34:04;98643.16;;;2.76;70.03
46476;BME280;53376;51.114;14.738;2022-12-04T03:36:51;98640.53;;;2.76;69.99
46476;BME280;53376;51.114;14.738;2022-12-04T03:39:33;98651.00;;;2.78;70.06
46476;BME280;53376;51.114;14.738;2022-12-04T03:42:20;98644.03;;;2.77;70.11
46476;BME280;53376;51.114;14.738;2022-12-04T03:45:00;98644.84;;;2.79;70.35
46476;BME280;53376;51.114;14.738;2022-12-04T03:47:50;98650.06;;;2.80;70.19
46476;BME280;53376;51.114;14.738;2022-12-04T04:00:47;98649.13;;;2.83;70.59
46476;BME280;53376;51.114;14.738;2022-12-04T04:03:34;98644.75;;;2.82;70.42
46476;BME280;53376;51.114;14.738;2022-12-04T04:06:22;98646.53;;;2.81;70.59
46476;BME280;53376;51.114;14.738;2022-12-04T04:09:03;98642.13;;;2.82;70.28
46476;BME280;53376;51.114;14.738;2022-12-04T04:11:52;98643.88;;;2.83;70.15
46476;BME280;53376;51.114;14.738;2022-12-04T04:28:29;98661.34;;;2.84;69.69
46476;BME280;53376;51.114;14.738;2022-12-04T04:31:17;98660.41;;;2.86;69.62
46476;BME280;53376;51.114;14.738;2022-12-04T04:34:01;98659.56;;;2.84;69.85
46476;BME280;53376;51.114;14.738;2022-12-04T04:37:01;98662.25;;;2.83;70.20
46476;BME280;53376;51.114;14.738;2022-12-04T04:39:47;98658.75;;;2.82;70.04
46476;BME280;53376;51.114;14.738;2022-12-04T04:42:37;98652.63;;;2.82;69.93
46476;BME280;53376;51.114;14.738;2022-12-04T04:55:35;98649.91;;;2.86;69.66
46476;BME280;53376;51.114;14.738;2022-12-04T04:58:06;98646.38;;;2.87;69.50
46476;BME280;53376;51.114;14.738;2022-12-04T05:00:55;98642.88;;;2.87;69.49
46476;BME280;53376;51.114;14.738;2022-12-04T05:03:31;98641.97;;;2.88;69.31
46476;BME280;53376;51.114;14.738;2022-12-04T05:06:11;98648.13;;;2.88;69.77
46476;BME280;53376;51.114;14.738;2022-12-04T05:22:23;98648.97;;;2.89;69.56
46476;BME280;53376;51.114;14.738;2022-12-04T05:25:05;98650.69;;;2.90;69.59
46476;BME280;53376;51.114;14.738;2022-12-04T05:27:33;98644.53;;;2.91;69.50
46476;BME280;53376;51.114;14.738;2022-12-04T05:30:16;98648.91;;;2.92;69.69
46476;BME280;53376;51.114;14.738;2022-12-04T05:32:49;98644.53;;;2.91;69.56
46476;BME280;53376;51.114;14.738;2022-12-04T05:46:32;98644.56;;;2.89;69.52
46476;BME280;53376;51.114;14.738;2022-12-04T05:49:12;98650.69;;;2.90;69.63
46476;BME280;53376;51.114;14.738;2022-12-04T05:51:39;98646.28;;;2.92;69.85
46476;BME280;53376;51.114;14.738;2022-12-04T05:54:13;98644.53;;;2.91;69.39
46476;BME280;53376;51.114;14.738;2022-12-04T05:56:53;98643.66;;;2.92;69.45
46476;BME280;53376;51.114;14.738;2022-12-04T05:59:19;98634.84;;;2.93;69.84
46476;BME280;53376;51.114;14.738;2022-12-04T06:01:54;98634.84;;;2.93;69.73
46476;BME280;53376;51.114;14.738;2022-12-04T06:15:08;98644.50;;;2.93;70.08
46476;BME280;53376;51.114;14.738;2022-12-04T06:17:50;98638.41;;;2.92;69.83
46476;BME280;53376;51.114;14.738;2022-12-04T06:20:17;98639.25;;;2.93;69.67
46476;BME280;53376;51.114;14.738;2022-12-04T06:22:58;98641.03;;;2.92;69.73
46476;BME280;53376;51.114;14.738;2022-12-04T06:25:25;98641.91;;;2.91;69.83
46476;BME280;53376;51.114;14.738;2022-12-04T06:28:05;98649.75;;;2.93;69.69
46476;BME280;53376;51.114;14.738;2022-12-04T06:40:48;98652.41;;;2.91;69.76
46476;BME280;53376;51.114;14.738;2022-12-04T06:43:28;98647.16;;;2.91;69.66
46476;BME280;53376;51.114;14.738;2022-12-04T06:46:10;98646.28;;;2.92;69.63
46476;BME280;53376;51.114;14.738;2022-12-04T06:48:45;98647.06;;;2.94;69.63
46476;BME280;53376;51.114;14.738;2022-12-04T06:51:28;98641.81;;;2.94;69.62
46476;BME280;53376;51.114;14.738;2022-12-04T07:07:45;98656.63;;;2.97;69.56
46476;BME280;53376;51.114;14.738;2022-12-04T07:10:24;98657.50;;;2.97;69.67
46476;BME280;53376;51.114;14.738;2022-12-04T07:12:51;98662.75;;;2.97;69.80
46476;BME280;53376;51.114;14.738;2022-12-04T07:15:24;98655.78;;;2.96;69.60
46476;BME280;53376;51.114;14.738;2022-12-04T07:18:05;98657.50;;;2.97;69.52
46476;BME280;53376;51.114;14.738;2022-12-04T07:20:31;98656.63;;;2.98;69.60
46476;BME280;53376;51.114;14.738;2022-12-04T07:23:13;98666.19;;;2.99;69.47
46476;BME280;53376;51.114;14.738;2022-12-04T07:35:55;98660.94;;;2.99;69.70
46476;BME280;53376;51.114;14.738;2022-12-04T07:38:38;98667.91;;;3.00;69.68
46476;BME280;53376;51.114;14.738;2022-12-04T07:41:19;98667.91;;;3.00;69.76
46476;BME280;53376;51.114;14.738;2022-12-04T07:43:46;98668.81;;;2.99;69.73
46476;BME280;53376;51.114;14.738;2022-12-04T07:46:27;98670.53;;;3.00;69.63
46476;BME280;53376;51.114;14.738;2022-12-04T08:02:35;98660.88;;;3.02;69.39
46476;BME280;53376;51.114;14.738;2022-12-04T08:05:16;98664.34;;;3.04;69.44
46476;BME280;53376;51.114;14.738;2022-12-04T08:07:43;98662.59;;;3.03;69.27
46476;BME280;53376;51.114;14.738;2022-12-04T08:10:23;98669.59;;;3.04;69.63
46476;BME280;53376;51.114;14.738;2022-12-04T08:12:49;98662.56;;;3.05;69.46
46476;BME280;53376;51.114;14.738;2022-12-04T08:29:26;98651.94;;;3.10;69.70
46476;BME280;53376;51.114;14.738;2022-12-04T08:32:11;98647.50;;;3.12;69.97
46476;BME280;53376;51.114;14.738;2022-12-04T08:34:52;98643.97;;;3.13;69.74
46476;BME280;53376;51.114;14.738;2022-12-04T08:37:28;98643.16;;;3.11;69.91
46476;BME280;53376;51.114;14.738;2022-12-04T08:40:10;98641.44;;;3.10;69.74
46476;BME280;53376;51.114;14.738;2022-12-04T08:42:38;98644.88;;;3.12;70.05
46476;BME280;53376;51.114;14.738;2022-12-04T08:55:51;98660.47;;;3.18;69.94
46476;BME280;53376;51.114;14.738;2022-12-04T08:58:31;98657.84;;;3.18;69.68
46476;BME280;53376;51.114;14.738;2022-12-04T09:01:03;98661.34;;;3.18;69.70
46476;BME280;53376;51.114;14.738;2022-12-04T09:03:44;98662.19;;;3.19;69.56
46476;BME280;53376;51.114;14.738;2022-12-04T09:06:13;98666.53;;;3.20;69.68
46476;BME280;53376;51.114;14.738;2022-12-04T09:22:51;98652.47;;;3.22;69.52
46476;BME280;53376;51.114;14.738;2022-12-04T09:25:37;98652.47;;;3.22;69.95
46476;BME280;53376;51.114;14.738;2022-12-04T09:28:17;98652.41;;;3.24;69.71
46476;BME280;53376;51.114;14.738;2022-12-04T09:30:44;98656.78;;;3.25;69.77
46476;BME280;53376;51.114;14.738;2022-12-04T09:33:32;98654.97;;;3.27;70.12
46476;BME280;53376;51.114;14.738;2022-12-04T09:36:06;98652.41;;;3.26;70.01
46476;BME280;53376;51.114;14.738;2022-12-04T09:49:23;98643.56;;;3.28;70.04
46476;BME280;53376;51.114;14.738;2022-12-04T09:52:13;98633.06;;;3.28;69.77
46476;BME280;53376;51.114;14.738;2022-12-04T09:54:54;98628.66;;;3.29;69.43
46476;BME280;53376;51.114;14.738;2022-12-04T09:57:42;98618.97;;;3.31;69.62
46476;BME280;53376;51.114;14.738;2022-12-04T10:00:19;98634.69;;;3.32;69.88
46476;BME280;53376;51.114;14.738;2022-12-04T10:03:01;98618.88;;;3.34;70.05
46476;BME280;53376;51.114;14.738;2022-12-04T10:16:02;98621.44;;;3.37;69.53
46476;BME280;53376;51.114;14.738;2022-12-04T10:18:55;98623.16;;;3.38;69.68
46476;BME280;53376;51.114;14.738;2022-12-04T10:21:49;98612.59;;;3.39;69.39
46476;BME280;53376;51.114;14.738;2022-12-04T10:24:40;98607.34;;;3.39;69.26
46476;BME280;53376;51.114;14.738;2022-12-04T10:27:27;98617.84;;;3.39;69.45
46476;BME280;53376;51.114;14.738;2022-12-04T10:40:49;98605.38;;;3.48;69.67
46476;BME280;53376;51.114;14.738;2022-12-04T10:43:41;98608.81;;;3.50;69.33
46476;BME280;53376;51.114;14.738;2022-12-04T10:46:25;98607.91;;;3.51;69.67
46476;BME280;53376;51.114;14.738;2022-12-04T10:49:03;98617.41;;;3.55;69.39
46476;BME280;53376;51.114;14.738;2022-12-04T10:51:45;98602.53;;;3.55;69.41
46476;BME280;53376;51.114;14.738;2022-12-04T10:54:20;98610.34;;;3.57;69.58
46476;BME280;53376;51.114;14.738;2022-12-04T10:57:05;98608.56;;;3.59;69.60
46476;BME280;53376;51.114;14.738;2022-12-04T11:09:55;98601.38;;;3.64;69.46
46476;BME280;53376;51.114;14.738;2022-12-04T11:12:39;98597.88;;;3.65;69.38
46476;BME280;53376;51.114;14.738;2022-12-04T11:15:19;98598.66;;;3.67;69.80
46476;BME280;53376;51.114;14.738;2022-12-04T11:17:45;98585.50;;;3.67;69.73
46476;BME280;53376;51.114;14.738;2022-12-04T11:20:26;98588.97;;;3.69;69.61
46476;BME280;53376;51.114;14.738;2022-12-04T11:22:56;98595.06;;;3.70;69.91
46476;BME280;53376;51.114;14.738;2022-12-04T11:36:18;98590.50;;;3.77;70.11
46476;BME280;53376;51.114;14.738;2022-12-04T11:39:12;98585.16;;;3.80;70.69
46476;BME280;53376;51.114;14.738;2022-12-04T11:41:59;98599.03;;;3.85;71.11
46476;BME280;53376;51.114;14.738;2022-12-04T11:44:49;98597.16;;;3.88;71.55
46476;BME280;53376;51.114;14.738;2022-12-04T11:47:26;98583.06;;;3.91;71.67
46476;BME280;53376;51.114;14.738;2022-12-04T12:01:03;98587.06;;;4.03;72.18
46476;BME280;53376;51.114;14.738;2022-12-04T12:04:06;98572.25;;;4.00;71.91
46476;BME280;53376;51.114;14.738;2022-12-04T12:07:07;98581.06;;;3.99;71.94
46476;BME280;53376;51.114;14.738;2022-12-04T12:09:59;98575.78;;;3.99;72.04
46476;BME280;53376;51.114;14.738;2022-12-04T12:12:50;98571.41;;;4.00;71.98
46476;BME280;53376;51.114;14.738;2022-12-04T12:15:45;98573.13;;;4.01;71.95
46476;BME280;53376;51.114;14.738;2022-12-04T12:29:02;98568.63;;;4.04;71.61
46476;BME280;53376;51.114;14.738;2022-12-04T12:32:07;98558.84;;;4.08;72.03
46476;BME280;53376;51.114;14.738;2022-12-04T12:34:55;98564.09;;;4.10;72.06
46476;BME280;53376;51.114;14.738;2022-12-04T12:37:29;98554.41;;;4.10;72.31
46476;BME280;53376;51.114;14.738;2022-12-04T12:40:18;98549.94;;;4.14;72.43
46476;BME280;53376;51.114;14.738;2022-12-04T12:43:02;98549.94;;;4.14;72.31
46476;BME280;53376;51.114;14.738;2022-12-04T12:56:31;98541.06;;;4.16;72.05
46476;BME280;53376;51.114;14.738;2022-12-04T12:59:25;98542.84;;;4.16;71.85
46476;BME280;53376;51.114;14.738;2022-12-04T13:02:10;98540.22;;;4.16;71.79
46476;BME280;53376;51.114;14.738;2022-12-04T13:05:02;98546.28;;;4.18;71.73
46476;BME280;53376;51.114;14.738;2022-12-04T13:07:47;98532.34;;;4.16;71.94
46476;BME280;53376;51.114;14.738;2022-12-04T13:21:23;98543.44;;;4.24;72.22
46476;BME280;53376;51.114;14.738;2022-12-04T13:24:39;98538.94;;;4.28;72.97
46476;BME280;53376;51.114;14.738;2022-12-04T13:27:31;98538.88;;;4.29;72.75
46476;BME280;53376;51.114;14.738;2022-12-04T13:30:19;98535.31;;;4.32;73.47
46476;BME280;53376;51.114;14.738;2022-12-04T13:33:16;98543.16;;;4.33;73.19
46476;BME280;53376;51.114;14.738;2022-12-04T13:49:46;98540.59;;;4.32;73.54
46476;BME280;53376;51.114;14.738;2022-12-04T13:52:40;98534.44;;;4.31;73.50
46476;BME280;53376;51.114;14.738;2022-12-04T13:55:24;98529.19;;;4.31;73.52
46476;BME280;53376;51.114;14.738;2022-12-04T13:58:02;98530.91;;;4.32;73.53
46476;BME280;53376;51.114;14.738;2022-12-04T14:01:03;98544.97;;;4.31;73.50
46476;BME280;53376;51.114;14.738;2022-12-04T14:17:33;98534.44;;;4.31;73.33
46476;BME280;53376;51.114;14.738;2022-12-04T14:20:25;98528.34;;;4.31;72.96
46476;BME280;53376;51.114;14.738;2022-12-04T14:23:09;98539.72;;;4.31;72.90
46476;BME280;53376;51.114;14.738;2022-12-04T14:26:02;98536.22;;;4.31;72.53
46476;BME280;53376;51.114;14.738;2022-12-04T14:28:38;98536.25;;;4.29;72.49
46476;BME280;53376;51.114;14.738;2022-12-04T14:41:37;98532.91;;;4.24;72.01
46476;BME280;53376;51.114;14.738;2022-12-04T14:44:26;98534.66;;;4.25;71.76
46476;BME280;53376;51.114;14.738;2022-12-04T14:50:28;98539.91;;;4.25;71.79
46476;BME280;53376;51.114;14.738;2022-12-04T14:53:16;98539.06;;;4.25;71.67
46476;BME280;53376;51.114;14.738;2022-12-04T14:56:29;98547.84;;;4.24;71.17
46476;BME280;53376;51.114;14.738;2022-12-04T15:09:49;98542.75;;;4.19;71.26
46476;BME280;53376;51.114;14.738;2022-12-04T15:12:30;98546.28;;;4.18;71.37
46476;BME280;53376;51.114;14.738;2022-12-04T15:15:14;98540.22;;;4.16;71.41
46476;BME280;53376;51.114;14.738;2022-12-04T15:17:58;98539.28;;;4.17;71.35
46476;BME280;53376;51.114;14.738;2022-12-04T15:20:43;98526.19;;;4.15;71.34
46476;BME280;53376;51.114;14.738;2022-12-04T15:23:28;98527.97;;;4.15;71.26
46476;BME280;53376;51.114;14.738;2022-12-04T15:36:48;98511.50;;;4.08;71.14
46476;BME280;53376;51.114;14.738;2022-12-04T15:39:33;98515.94;;;4.08;71.15
46476;BME280;53376;51.114;14.738;2022-12-04T15:42:17;98520.34;;;4.07;71.18
46476;BME280;53376;51.114;14.738;2022-12-04T15:45:00;98517.72;;;4.07;71.19
46476;BME280;53376;51.114;14.738;2022-12-04T15:47:31;98517.75;;;4.06;71.00
46476;BME280;53376;51.114;14.738;2022-12-04T16:04:18;98512.69;;;3.99;71.08
46476;BME280;53376;51.114;14.738;2022-12-04T16:06:58;98514.31;;;4.03;71.18
46476;BME280;53376;51.114;14.738;2022-12-04T16:09:51;98517.84;;;4.02;71.10
46476;BME280;53376;51.114;14.738;2022-12-04T16:12:33;98516.94;;;4.03;71.03
46476;BME280;53376;51.114;14.738;2022-12-04T16:15:13;98517.84;;;4.02;71.12
46476;BME280;53376;51.114;14.738;2022-12-04T16:17:40;98511.72;;;4.02;71.25
46476;BME280;53376;51.114;14.738;2022-12-04T16:30:52;98524.06;;;4.00;71.26
46476;BME280;53376;51.114;14.738;2022-12-04T16:33:32;98523.19;;;3.99;71.03
46476;BME280;53376;51.114;14.738;2022-12-04T16:35:59;98529.41;;;3.97;71.06
46476;BME280;53376;51.114;14.738;2022-12-04T16:38:32;98518.13;;;3.93;71.19
46476;BME280;53376;51.114;14.738;2022-12-04T16:41:14;98513.75;;;3.94;71.27
46476;BME280;53376;51.114;14.738;2022-12-04T16:43:42;98519.84;;;3.94;71.22
46476;BME280;53376;51.114;14.738;2022-12-04T16:57:00;98500.63;;;3.92;71.16
46476;BME280;53376;51.114;14.738;2022-12-04T16:59:41;98498.88;;;3.93;71.07
46476;BME280;53376;51.114;14.738;2022-12-04T17:02:14;98500.63;;;3.92;71.01
46476;BME280;53376;51.114;14.738;2022-12-04T17:04:56;98494.59;;;3.90;71.01
46476;BME280;53376;51.114;14.738;2022-12-04T17:07:24;98502.47;;;3.90;71.09
46476;BME280;53376;51.114;14.738;2022-12-04T17:24:00;98483.34;;;3.85;70.99
46476;BME280;53376;51.114;14.738;2022-12-04T17:26:40;98489.41;;;3.87;71.01
46476;BME280;53376;51.114;14.738;2022-12-04T17:29:20;98484.19;;;3.85;71.00
46476;BME280;53376;51.114;14.738;2022-12-04T17:31:47;98485.97;;;3.85;71.08
46476;BME280;53376;51.114;14.738;2022-12-04T17:34:20;98482.41;;;3.86;70.97
46476;BME280;53376;51.114;14.738;2022-12-04T17:37:00;98479.78;;;3.86;71.19
46476;BME280;53376;51.114;14.738;2022-12-04T17:49:43;98475.41;;;3.86;72.15
46476;BME280;53376;51.114;14.738;2022-12-04T17:52:23;98478.88;;;3.87;72.73
46476;BME280;53376;51.114;14.738;2022-12-04T17:55:04;98478.88;;;3.87;72.44
46476;BME280;53376;51.114;14.738;2022-12-04T17:57:41;98481.50;;;3.87;72.44
46476;BME280;53376;51.114;14.738;2022-12-04T18:00:22;98476.25;;;3.87;72.28
46476;BME280;53376;51.114;14.738;2022-12-04T18:02:49;98475.41;;;3.86;71.94
46476;BME280;53376;51.114;14.738;2022-12-04T18:15:49;98471.13;;;3.84;71.64
46476;BME280;53376;51.114;14.738;2022-12-04T18:18:29;98471.13;;;3.84;71.72
46476;BME280;53376;51.114;14.738;2022-12-04T18:21:10;98461.50;;;3.83;71.68
46476;BME280;53376;51.114;14.738;2022-12-04T18:23:39;98462.31;;;3.85;71.72
46476;BME280;53376;51.114;14.738;2022-12-04T18:26:23;98465.84;;;3.84;71.56
46476;BME280;53376;51.114;14.738;2022-12-04T18:42:42;98474.53;;;3.86;71.33
46476;BME280;53376;51.114;14.738;2022-12-04T18:45:22;98471.00;;;3.87;71.28
46476;BME280;53376;51.114;14.738;2022-12-04T18:47:49;98474.50;;;3.87;71.35
46476;BME280;53376;51.114;14.738;2022-12-04T18:50:23;98472.72;;;3.88;71.31
46476;BME280;53376;51.114;14.738;2022-12-04T18:53:04;98472.66;;;3.90;71.04
46476;BME280;53376;51.114;14.738;2022-12-04T18:55:34;98467.47;;;3.88;71.11
46476;BME280;53376;51.114;14.738;2022-12-04T18:58:15;98466.56;;;3.89;70.96
46476;BME280;53376;51.114;14.738;2022-12-04T19:11:05;98464.00;;;3.87;71.25
46476;BME280;53376;51.114;14.738;2022-12-04T19:13:48;98472.72;;;3.88;71.29
46476;BME280;53376;51.114;14.738;2022-12-04T19:16:27;98476.25;;;3.87;71.21
46476;BME280;53376;51.114;14.738;2022-12-04T19:18:55;98479.75;;;3.87;71.29
46476;BME280;53376;51.114;14.738;2022-12-04T19:21:35;98486.72;;;3.88;71.14
46476;BME280;53376;51.114;14.738;2022-12-04T19:37:43;98486.78;;;3.87;71.12
46476;BME280;53376;51.114;14.738;2022-12-04T19:40:25;98485.03;;;3.87;71.11
46476;BME280;53376;51.114;14.738;2022-12-04T19:42:53;98487.66;;;3.87;71.03
46476;BME280;53376;51.114;14.738;2022-12-04T19:45:35;98477.16;;;3.86;70.95
46476;BME280;53376;51.114;14.738;2022-12-04T19:48:03;98478.94;;;3.85;70.87
46476;BME280;53376;51.114;14.738;2022-12-04T19:50:43;98467.59;;;3.85;70.83
46476;BME280;53376;51.114;14.738;2022-12-04T19:53:12;98482.47;;;3.84;71.06
46476;BME280;53376;51.114;14.738;2022-12-04T20:02:56;98466.84;;;3.80;70.80
46476;BME280;53376;51.114;14.738;2022-12-04T20:05:36;98472.06;;;3.81;70.65
46476;BME280;53376;51.114;14.738;2022-12-04T20:08:20;98479.97;;;3.80;70.70
46476;BME280;53376;51.114;14.738;2022-12-04T20:10:46;98472.97;;;3.80;70.71
46476;BME280;53376;51.114;14.738;2022-12-04T20:13:26;98472.97;;;3.80;70.67
46476;BME280;53376;51.114;14.738;2022-12-04T20:16:01;98474.84;;;3.77;70.38
46476;BME280;53376;51.114;14.738;2022-12-04T20:18:42;98481.81;;;3.78;70.75
46476;BME280;53376;51.114;14.738;2022-12-04T20:31:28;98461.75;;;3.75;70.52
46476;BME280;53376;51.114;14.738;2022-12-04T20:34:12;98469.66;;;3.74;70.48
46476;BME280;53376;51.114;14.738;2022-12-04T20:36:52;98461.00;;;3.70;70.46
46476;BME280;53376;51.114;14.738;2022-12-04T20:39:19;98469.00;;;3.67;70.70
46476;BME280;53376;51.114;14.738;2022-12-04T20:41:52;98459.34;;;3.67;70.48
46476;BME280;53376;51.114;14.738;2022-12-04T20:58:29;98452.41;;;3.65;70.54
46476;BME280;53376;51.114;14.738;2022-12-04T21:01:11;98460.31;;;3.65;70.83
46476;BME280;53376;51.114;14.738;2022-12-04T21:03:52;98460.34;;;3.63;70.71
46476;BME280;53376;51.114;14.738;2022-12-04T21:06:22;98463.84;;;3.64;70.65
46476;BME280;53376;51.114;14.738;2022-12-04T21:09:10;98462.13;;;3.63;70.61
46476;BME280;53376;51.114;14.738;2022-12-04T21:11:48;98469.97;;;3.64;70.56
46476;BME280;53376;51.114;14.738;2022-12-04T21:24:59;98472.66;;;3.63;70.63
46476;BME280;53376;51.114;14.738;2022-12-04T21:27:39;98471.78;;;3.62;70.68
46476;BME280;53376;51.114;14.738;2022-12-04T21:30:07;98483.19;;;3.61;70.64
46476;BME280;53376;51.114;14.738;2022-12-04T21:32:48;98480.56;;;3.61;70.57
46476;BME280;53376;51.114;14.738;2022-12-04T21:35:15;98478.88;;;3.60;70.45
46476;BME280;53376;51.114;14.738;2022-12-04T21:37:55;98472.69;;;3.61;70.54
46476;BME280;53376;51.114;14.738;2022-12-04T21:50:38;98466.63;;;3.59;70.47
46476;BME280;53376;51.114;14.738;2022-12-04T21:53:17;98473.69;;;3.57;70.60
46476;BME280;53376;51.114;14.738;2022-12-04T21:55:57;98482.47;;;3.56;70.45
46476;BME280;53376;51.114;14.738;2022-12-04T21:58:25;98471.97;;;3.56;70.68
46476;BME280;53376;51.114;14.738;2022-12-04T22:01:07;98468.53;;;3.54;70.46
46476;BME280;53376;51.114;14.738;2022-12-04T22:03:41;98480.75;;;3.55;70.52
46476;BME280;53376;51.114;14.738;2022-12-04T22:16:53;98463.19;;;3.57;70.57
46476;BME280;53376;51.114;14.738;2022-12-04T22:19:35;98459.72;;;3.55;70.48
46476;BME280;53376;51.114;14.738;2022-12-04T22:22:01;98465.88;;;3.55;70.49
46476;BME280;53376;51.114;14.738;2022-12-04T22:24:41;98447.53;;;3.54;70.61
46476;BME280;53376;51.114;14.738;2022-12-04T22:27:08;98458.81;;;3.56;70.65
46476;BME280;53376;51.114;14.738;2022-12-04T22:29:48;98448.31;;;3.56;70.76
46476;BME280;53376;51.114;14.738;2022-12-04T22:32:19;98455.41;;;3.54;70.62
46476;BME280;53376;51.114;14.738;2022-12-04T22:45:28;98442.28;;;3.54;70.62
46476;BME280;53376;51.114;14.738;2022-12-04T22:48:10;98449.22;;;3.55;70.79
46476;BME280;53376;51.114;14.738;2022-12-04T22:50:42;98440.44;;;3.56;70.71
46476;BME280;53376;51.114;14.738;2022-12-04T22:53:39;98430.81;;;3.57;70.51
46476;BME280;53376;51.114;14.738;2022-12-04T22:56:16;98433.44;;;3.57;70.59
46476;BME280;53376;51.114;14.738;2022-12-04T22:58:58;98443.00;;;3.58;70.94
46476;BME280;53376;51.114;14.738;2022-12-04T23:11:43;98442.09;;;3.59;70.69
46476;BME280;53376;51.114;14.738;2022-12-04T23:14:23;98437.72;;;3.59;70.93
46476;BME280;53376;51.114;14.738;2022-12-04T23:17:04;98435.09;;;3.59;70.77
46476;BME280;53376;51.114;14.738;2022-12-04T23:19:31;98424.59;;;3.59;70.71
46476;BME280;53376;51.114;14.738;2022-12-04T23:22:11;98416.63;;;3.61;71.03
46476;BME280;53376;51.114;14.738;2022-12-04T23:38:20;98415.59;;;3.66;71.55
46476;BME280;53376;51.114;14.738;2022-12-04T23:41:00;98417.28;;;3.67;71.65
46476;BME280;53376;51.114;14.738;2022-12-04T23:43:27;98410.28;;;3.68;71.69
46476;BME280;53376;51.114;14.738;2022-12-04T23:46:08;98408.50;;;3.68;71.67
46476;BME280;53376;51.114;14.738;2022-12-04T23:48:38;98406.78;;;3.67;71.33
46476;BME280;53376;51.114;14.738;2022-12-04T23:51:20;98406.84;;;3.66;71.51
46476;BME280;53376;51.114;14.738;2022-12-04T23:53:49;98405.94;;;3.67;71.51
